Low Land 10 — WDJ6806 — position and weather

sailwx.info

Track history (hours):
 
Tides and Currents Weather Stations Pressure Air Temp Water Temp Dewpoint Dewpoint Depression Visibility Wind Speed Wind Dir Waves Ship Positions

Low Land 10

Owner: LOW LAND CONSTRUCTION CO. INC., HOUMA, LA. More information available from US FCC via Universal Licensing System and Coast Guard Vessel Documentation Center.

Last reported at 2018-Feb-15 15:01 UTC. Time now 2018-Feb-20 13:36 UTC.
Position N 29°36' W 090°40'.

Type: Tug. MMSI: 368000390.

Date/timePositionNaut miles runAvg speedWind from/ knotsBaromVisibWave heightAir tempDewpointWater temp
2018-Feb-15 15:01N 29°36' W 090°40'0 0.7
2018-Feb-15 15:00N 29°36' W 090°40'0 0.0
2018-Feb-15 14:30N 29°36' W 090°40'0 0.0
2018-Feb-15 14:00N 29°36' W 090°40'0 0.0
2018-Feb-15 13:30N 29°36' W 090°40'0 0.0
2018-Feb-15 13:00N 29°36' W 090°40'0 0.0
2018-Feb-15 12:30N 29°36' W 090°40'0 0.0
2018-Feb-15 12:00N 29°36' W 090°40'0 0.0
2018-Feb-15 11:30N 29°36' W 090°40'0 0.0
2018-Feb-15 11:00N 29°36' W 090°40'0 0.0
2018-Feb-15 10:30N 29°36' W 090°40'0 0.0
2018-Feb-15 10:01N 29°36' W 090°40'0 0.0
2018-Feb-15 09:30N 29°36' W 090°40'0 0.0
2018-Feb-15 09:00N 29°36' W 090°40'0 0.0
2018-Feb-15 08:30N 29°36' W 090°40'0 0.0
2018-Feb-15 08:00N 29°36' W 090°40'0 0.0
2018-Feb-15 07:30N 29°36' W 090°40'0 0.0
2018-Feb-15 07:00N 29°36' W 090°40'0 0.0
2018-Feb-15 06:30N 29°36' W 090°40'0 0.0
2018-Feb-15 06:00N 29°36' W 090°40'0 0.0
2018-Feb-15 05:30N 29°36' W 090°40'0 0.0
2018-Feb-15 04:59N 29°36' W 090°40'0 0.0
2018-Feb-15 04:30N 29°36' W 090°40'0 0.0
2018-Feb-15 04:00N 29°36' W 090°40'0 0.0
2018-Feb-15 03:29N 29°36' W 090°40'0 0.0
2018-Feb-15 03:00N 29°36' W 090°40'0 0.0
2018-Feb-15 02:31N 29°36' W 090°40'0 0.0
2018-Feb-15 02:00N 29°36' W 090°40'0 0.0
2018-Feb-15 01:30N 29°36' W 090°40'0 0.0
2018-Feb-15 01:00N 29°36' W 090°40'0 0.0
2018-Feb-15 00:30N 29°36' W 090°40'0 0.0
2018-Feb-15 00:00N 29°36' W 090°40'0 0.0
2018-Feb-14 23:30N 29°36' W 090°40'0 0.0
2018-Feb-14 23:00N 29°36' W 090°40'0 0.0
2018-Feb-14 22:31N 29°36' W 090°40'0 0.0
2018-Feb-14 22:00N 29°36' W 090°40'0 0.0
2018-Feb-14 21:30N 29°36' W 090°40'0 0.0
2018-Feb-14 20:59N 29°36' W 090°40'0 0.0
2018-Feb-14 20:30N 29°36' W 090°40'0 0.0
2018-Feb-14 20:01N 29°36' W 090°40'0 0.0
2018-Feb-14 19:30N 29°36' W 090°40'0 0.0
2018-Feb-14 19:00N 29°36' W 090°40'0 0.0
2018-Feb-14 18:30N 29°36' W 090°40'0 0.0
2018-Feb-14 18:00N 29°36' W 090°40'0 0.0
2018-Feb-14 17:30N 29°36' W 090°40'0 0.0
2018-Feb-14 17:00N 29°36' W 090°40'0 0.0
2018-Feb-14 16:30N 29°36' W 090°40'0 0.0
2018-Feb-14 16:00N 29°36' W 090°40'0 0.0
2018-Feb-14 15:29N 29°36' W 090°40'0 0.0
2018-Feb-14 15:00N 29°36' W 090°40'0 0.0
2018-Feb-14 14:30N 29°36' W 090°40'0 0.0
2018-Feb-14 14:00N 29°36' W 090°40'0 0.0
2018-Feb-14 13:30N 29°36' W 090°40'0 0.0
2018-Feb-14 13:00N 29°36' W 090°40'0 0.0
2018-Feb-14 12:30N 29°36' W 090°40'0 0.0
2018-Feb-14 12:00N 29°36' W 090°40'0 0.0
2018-Feb-14 11:30N 29°36' W 090°40'0 0.0
2018-Feb-14 11:00N 29°36' W 090°40'0 0.0
2018-Feb-14 10:30N 29°36' W 090°40'0 0.0
2018-Feb-14 10:00N 29°36' W 090°40'0 0.0
2018-Feb-14 09:30N 29°36' W 090°40'0 0.0
2018-Feb-14 09:00N 29°36' W 090°40'0 0.0
2018-Feb-14 08:30N 29°36' W 090°40'0 0.0
2018-Feb-14 08:00N 29°36' W 090°40'0 0.0
2018-Feb-14 07:30N 29°36' W 090°40'0 0.4
2018-Feb-14 07:00N 29°36' W 090°40'0 0.0
2018-Feb-14 06:30N 29°36' W 090°40'0 0.0
2018-Feb-14 06:00N 29°36' W 090°40'2 4.7
2018-Feb-14 05:30N 29°37' W 090°42'2 4.9
2018-Feb-14 05:00N 29°34' W 090°43'0 0.0
2018-Feb-14 04:30N 29°34' W 090°43'1 2.3
2018-Feb-14 04:00N 29°34' W 090°44'3 5.2
2018-Feb-14 03:30N 29°32' W 090°46'3 5.7
2018-Feb-14 03:00N 29°32' W 090°50'9 0.2
2018-Feb-12 16:14N 29°36' W 090°58'2 5.4
2018-Feb-12 15:54N 29°35' W 090°57'2 5.5
2018-Feb-12 15:30N 29°34' W 090°55'3 5.3
2018-Feb-12 15:00N 29°32' W 090°53'3 5.2
2018-Feb-12 14:30N 29°32' W 090°50'3 5.2
2018-Feb-12 14:00N 29°32' W 090°47'2 4.6
2018-Feb-12 13:30N 29°34' W 090°45'2 4.4
2018-Feb-12 13:00N 29°35' W 090°43'2 3.8
2018-Feb-12 12:30N 29°36' W 090°41'1 2.3
2018-Feb-12 12:00N 29°36' W 090°40'0 0.0
2018-Feb-12 11:30N 29°36' W 090°40'0 0.0
2018-Feb-12 11:00N 29°36' W 090°40'1 2.9
2018-Feb-12 10:30N 29°35' W 090°38'3 5.1
2018-Feb-12 10:00N 29°35' W 090°35'2 4.5
2018-Feb-12 09:30N 29°34' W 090°33'3 5.3
2018-Feb-12 09:00N 29°34' W 090°30'  
2018-Feb-07 23:57N 29°34' W 090°29'2 5.1
2018-Feb-07 23:30N 29°34' W 090°32'3 5.2
2018-Feb-07 23:00N 29°34' W 090°35'2 3.8
2018-Feb-07 22:30N 29°35' W 090°37'1 2.9
2018-Feb-07 22:00N 29°35' W 090°38'2 3.0
2018-Feb-07 21:30N 29°36' W 090°40'  
Track history (hours):
 
Tides and Currents Weather Stations Pressure Air Temp Water Temp Dewpoint Dewpoint Depression Visibility Wind Speed Wind Dir Waves Ship Positions

Low Land 10

Owner: LOW LAND CONSTRUCTION CO. INC., HOUMA, LA. More information available from US FCC via Universal Licensing System and Coast Guard Vessel Documentation Center.

Last reported at 2018-Feb-15 15:01 UTC. Time now 2018-Feb-20 13:36 UTC.
Position N 29°36' W 090°40'.

Type: Tug. MMSI: 368000390.

Date/timePositionNaut miles runAvg speedWind from/ knotsBaromVisibWave heightAir tempDewpointWater temp
2018-Feb-15 15:01N 29°36' W 090°40'0 0.7
2018-Feb-15 15:00N 29°36' W 090°40'0 0.0
2018-Feb-15 14:30N 29°36' W 090°40'0 0.0
2018-Feb-15 14:00N 29°36' W 090°40'0 0.0
2018-Feb-15 13:30N 29°36' W 090°40'0 0.0
2018-Feb-15 13:00N 29°36' W 090°40'0 0.0
2018-Feb-15 12:30N 29°36' W 090°40'0 0.0
2018-Feb-15 12:00N 29°36' W 090°40'0 0.0
2018-Feb-15 11:30N 29°36' W 090°40'0 0.0
2018-Feb-15 11:00N 29°36' W 090°40'0 0.0
2018-Feb-15 10:30N 29°36' W 090°40'0 0.0
2018-Feb-15 10:01N 29°36' W 090°40'0 0.0
2018-Feb-15 09:30N 29°36' W 090°40'0 0.0
2018-Feb-15 09:00N 29°36' W 090°40'0 0.0
2018-Feb-15 08:30N 29°36' W 090°40'0 0.0
2018-Feb-15 08:00N 29°36' W 090°40'0 0.0
2018-Feb-15 07:30N 29°36' W 090°40'0 0.0
2018-Feb-15 07:00N 29°36' W 090°40'0 0.0
2018-Feb-15 06:30N 29°36' W 090°40'0 0.0
2018-Feb-15 06:00N 29°36' W 090°40'0 0.0
2018-Feb-15 05:30N 29°36' W 090°40'0 0.0
2018-Feb-15 04:59N 29°36' W 090°40'0 0.0
2018-Feb-15 04:30N 29°36' W 090°40'0 0.0
2018-Feb-15 04:00N 29°36' W 090°40'0 0.0
2018-Feb-15 03:29N 29°36' W 090°40'0 0.0
2018-Feb-15 03:00N 29°36' W 090°40'0 0.0
2018-Feb-15 02:31N 29°36' W 090°40'0 0.0
2018-Feb-15 02:00N 29°36' W 090°40'0 0.0
2018-Feb-15 01:30N 29°36' W 090°40'0 0.0
2018-Feb-15 01:00N 29°36' W 090°40'0 0.0
2018-Feb-15 00:30N 29°36' W 090°40'0 0.0
2018-Feb-15 00:00N 29°36' W 090°40'0 0.0
2018-Feb-14 23:30N 29°36' W 090°40'0 0.0
2018-Feb-14 23:00N 29°36' W 090°40'0 0.0
2018-Feb-14 22:31N 29°36' W 090°40'0 0.0
2018-Feb-14 22:00N 29°36' W 090°40'0 0.0
2018-Feb-14 21:30N 29°36' W 090°40'0 0.0
2018-Feb-14 20:59N 29°36' W 090°40'0 0.0
2018-Feb-14 20:30N 29°36' W 090°40'0 0.0
2018-Feb-14 20:01N 29°36' W 090°40'0 0.0
2018-Feb-14 19:30N 29°36' W 090°40'0 0.0
2018-Feb-14 19:00N 29°36' W 090°40'0 0.0
2018-Feb-14 18:30N 29°36' W 090°40'0 0.0
2018-Feb-14 18:00N 29°36' W 090°40'0 0.0
2018-Feb-14 17:30N 29°36' W 090°40'0 0.0
2018-Feb-14 17:00N 29°36' W 090°40'0 0.0
2018-Feb-14 16:30N 29°36' W 090°40'0 0.0
2018-Feb-14 16:00N 29°36' W 090°40'0 0.0
2018-Feb-14 15:29N 29°36' W 090°40'0 0.0
2018-Feb-14 15:00N 29°36' W 090°40'0 0.0
2018-Feb-14 14:30N 29°36' W 090°40'0 0.0
2018-Feb-14 14:00N 29°36' W 090°40'0 0.0
2018-Feb-14 13:30N 29°36' W 090°40'0 0.0
2018-Feb-14 13:00N 29°36' W 090°40'0 0.0
2018-Feb-14 12:30N 29°36' W 090°40'0 0.0
2018-Feb-14 12:00N 29°36' W 090°40'0 0.0
2018-Feb-14 11:30N 29°36' W 090°40'0 0.0
2018-Feb-14 11:00N 29°36' W 090°40'0 0.0
2018-Feb-14 10:30N 29°36' W 090°40'0 0.0
2018-Feb-14 10:00N 29°36' W 090°40'0 0.0
2018-Feb-14 09:30N 29°36' W 090°40'0 0.0
2018-Feb-14 09:00N 29°36' W 090°40'0 0.0
2018-Feb-14 08:30N 29°36' W 090°40'0 0.0
2018-Feb-14 08:00N 29°36' W 090°40'0 0.0
2018-Feb-14 07:30N 29°36' W 090°40'0 0.4
2018-Feb-14 07:00N 29°36' W 090°40'0 0.0
2018-Feb-14 06:30N 29°36' W 090°40'0 0.0
2018-Feb-14 06:00N 29°36' W 090°40'2 4.7
2018-Feb-14 05:30N 29°37' W 090°42'2 4.9
2018-Feb-14 05:00N 29°34' W 090°43'0 0.0
2018-Feb-14 04:30N 29°34' W 090°43'1 2.3
2018-Feb-14 04:00N 29°34' W 090°44'3 5.2
2018-Feb-14 03:30N 29°32' W 090°46'3 5.7
2018-Feb-14 03:00N 29°32' W 090°50'9 0.2
2018-Feb-12 16:14N 29°36' W 090°58'2 5.4
2018-Feb-12 15:54N 29°35' W 090°57'2 5.5
2018-Feb-12 15:30N 29°34' W 090°55'3 5.3
2018-Feb-12 15:00N 29°32' W 090°53'3 5.2
2018-Feb-12 14:30N 29°32' W 090°50'3 5.2
2018-Feb-12 14:00N 29°32' W 090°47'2 4.6
2018-Feb-12 13:30N 29°34' W 090°45'2 4.4
2018-Feb-12 13:00N 29°35' W 090°43'2 3.8
2018-Feb-12 12:30N 29°36' W 090°41'1 2.3
2018-Feb-12 12:00N 29°36' W 090°40'0 0.0
2018-Feb-12 11:30N 29°36' W 090°40'0 0.0
2018-Feb-12 11:00N 29°36' W 090°40'1 2.9
2018-Feb-12 10:30N 29°35' W 090°38'3 5.1
2018-Feb-12 10:00N 29°35' W 090°35'2 4.5
2018-Feb-12 09:30N 29°34' W 090°33'3 5.3
2018-Feb-12 09:00N 29°34' W 090°30'  
2018-Feb-07 23:57N 29°34' W 090°29'2 5.1
2018-Feb-07 23:30N 29°34' W 090°32'3 5.2
2018-Feb-07 23:00N 29°34' W 090°35'2 3.8
2018-Feb-07 22:30N 29°35' W 090°37'1 2.9
2018-Feb-07 22:00N 29°35' W 090°38'2 3.0
2018-Feb-07 21:30N 29°36' W 090°40'  

Dump ship's entire track history